sensor_id;sensor_type;location;lat;lon;timestamp;temperature;humidity
7684;DHT22;3884;48.616;12.872;2023-06-22T00:00:56;19.60;99.90
7684;DHT22;3884;48.616;12.872;2023-06-22T00:03:24;19.60;99.90
7684;DHT22;3884;48.616;12.872;2023-06-22T00:05:52;19.50;1.00
7684;DHT22;3884;48.616;12.872;2023-06-22T00:08:20;19.40;1.00
7684;DHT22;3884;48.616;12.872;2023-06-22T00:10:47;19.40;99.90
7684;DHT22;3884;48.616;12.872;2023-06-22T00:13:14;19.30;1.00
7684;DHT22;3884;48.616;12.872;2023-06-22T00:15:42;19.40;1.00
7684;DHT22;3884;48.616;12.872;2023-06-22T00:18:10;19.40;1.00
7684;DHT22;3884;48.616;12.872;2023-06-22T00:20:37;19.40;1.00
7684;DHT22;3884;48.616;12.872;2023-06-22T00:23:05;19.20;1.00
7684;DHT22;3884;48.616;12.872;2023-06-22T00:25:35;19.10;1.00
7684;DHT22;3884;48.616;12.872;2023-06-22T00:28:02;19.10;1.00
7684;DHT22;3884;48.616;12.872;2023-06-22T00:30:30;18.90;99.90
7684;DHT22;3884;48.616;12.872;2023-06-22T00:32:58;18.90;1.00
7684;DHT22;3884;48.616;12.872;2023-06-22T00:35:25;18.90;1.00
7684;DHT22;3884;48.616;12.872;2023-06-22T00:37:54;19.00;1.00
7684;DHT22;3884;48.616;12.872;2023-06-22T00:40:26;19.00;1.00
7684;DHT22;3884;48.616;12.872;2023-06-22T00:42:55;19.00;1.00
7684;DHT22;3884;48.616;12.872;2023-06-22T00:45:22;19.00;1.00
7684;DHT22;3884;48.616;12.872;2023-06-22T00:47:50;19.00;1.00
7684;DHT22;3884;48.616;12.872;2023-06-22T00:50:20;18.90;99.90
7684;DHT22;3884;48.616;12.872;2023-06-22T00:52:49;18.90;1.00
7684;DHT22;3884;48.616;12.872;2023-06-22T00:55:18;18.90;1.00
7684;DHT22;3884;48.616;12.872;2023-06-22T00:57:46;18.90;1.00
7684;DHT22;3884;48.616;12.872;2023-06-22T01:00:16;18.90;1.00
7684;DHT22;3884;48.616;12.872;2023-06-22T01:02:45;18.60;1.00
7684;DHT22;3884;48.616;12.872;2023-06-22T01:05:18;18.70;99.90
7684;DHT22;3884;48.616;12.872;2023-06-22T01:07:54;18.80;99.90
7684;DHT22;3884;48.616;12.872;2023-06-22T01:10:28;18.50;99.90
7684;DHT22;3884;48.616;12.872;2023-06-22T01:13:01;18.30;1.00
7684;DHT22;3884;48.616;12.872;2023-06-22T01:15:33;18.30;1.00
7684;DHT22;3884;48.616;12.872;2023-06-22T01:18:04;18.30;1.00
7684;DHT22;3884;48.616;12.872;2023-06-22T01:20:34;18.30;1.00
7684;DHT22;3884;48.616;12.872;2023-06-22T01:23:08;18.40;1.00
7684;DHT22;3884;48.616;12.872;2023-06-22T01:25:43;18.30;1.00
7684;DHT22;3884;48.616;12.872;2023-06-22T01:28:24;18.40;2.50
7684;DHT22;3884;48.616;12.872;2023-06-22T01:30:53;18.40;1.00
7684;DHT22;3884;48.616;12.872;2023-06-22T01:33:30;18.50;1.00
7684;DHT22;3884;48.616;12.872;2023-06-22T01:35:58;18.40;1.00
7684;DHT22;3884;48.616;12.872;2023-06-22T01:38:26;18.40;1.00
7684;DHT22;3884;48.616;12.872;2023-06-22T01:40:54;18.40;1.00
7684;DHT22;3884;48.616;12.872;2023-06-22T01:43:22;18.40;1.00
7684;DHT22;3884;48.616;12.872;2023-06-22T01:45:50;18.60;1.00
7684;DHT22;3884;48.616;12.872;2023-06-22T01:48:19;18.70;1.00
7684;DHT22;3884;48.616;12.872;2023-06-22T01:50:47;18.70;1.00
7684;DHT22;3884;48.616;12.872;2023-06-22T01:53:13;18.80;99.90
7684;DHT22;3884;48.616;12.872;2023-06-22T01:55:40;18.70;99.90
7684;DHT22;3884;48.616;12.872;2023-06-22T01:58:07;18.70;1.00
7684;DHT22;3884;48.616;12.872;2023-06-22T02:00:38;18.50;1.00
7684;DHT22;3884;48.616;12.872;2023-06-22T02:03:10;18.30;99.90
7684;DHT22;3884;48.616;12.872;2023-06-22T02:05:43;18.20;99.90
7684;DHT22;3884;48.616;12.872;2023-06-22T02:08:15;18.30;1.00
7684;DHT22;3884;48.616;12.872;2023-06-22T02:10:44;18.30;1.00
7684;DHT22;3884;48.616;12.872;2023-06-22T02:13:14;18.30;99.90
7684;DHT22;3884;48.616;12.872;2023-06-22T02:15:41;18.40;99.90
7684;DHT22;3884;48.616;12.872;2023-06-22T02:18:12;18.50;21.90
7684;DHT22;3884;48.616;12.872;2023-06-22T02:20:40;18.50;1.00
7684;DHT22;3884;48.616;12.872;2023-06-22T02:23:08;18.50;99.90
7684;DHT22;3884;48.616;12.872;2023-06-22T02:25:35;18.60;99.90
7684;DHT22;3884;48.616;12.872;2023-06-22T02:28:02;18.50;99.90
7684;DHT22;3884;48.616;12.872;2023-06-22T02:30:29;18.40;99.90
7684;DHT22;3884;48.616;12.872;2023-06-22T02:32:59;18.30;96.10
7684;DHT22;3884;48.616;12.872;2023-06-22T02:35:26;18.40;1.00
7684;DHT22;3884;48.616;12.872;2023-06-22T02:37:58;18.30;1.00
7684;DHT22;3884;48.616;12.872;2023-06-22T02:40:27;18.30;1.00
7684;DHT22;3884;48.616;12.872;2023-06-22T02:42:55;18.30;1.00
7684;DHT22;3884;48.616;12.872;2023-06-22T02:45:23;18.30;1.00
7684;DHT22;3884;48.616;12.872;2023-06-22T02:47:50;18.30;1.00
7684;DHT22;3884;48.616;12.872;2023-06-22T02:50:17;18.40;99.90
7684;DHT22;3884;48.616;12.872;2023-06-22T02:52:44;18.40;1.00
7684;DHT22;3884;48.616;12.872;2023-06-22T02:55:14;18.30;99.90
7684;DHT22;3884;48.616;12.872;2023-06-22T02:57:44;18.20;99.90
7684;DHT22;3884;48.616;12.872;2023-06-22T03:00:14;18.20;1.00
7684;DHT22;3884;48.616;12.872;2023-06-22T03:02:46;18.20;1.00
7684;DHT22;3884;48.616;12.872;2023-06-22T03:05:14;18.30;1.00
7684;DHT22;3884;48.616;12.872;2023-06-22T03:07:44;18.30;99.90
7684;DHT22;3884;48.616;12.872;2023-06-22T03:10:12;18.20;1.00
7684;DHT22;3884;48.616;12.872;2023-06-22T03:12:41;18.10;99.90
7684;DHT22;3884;48.616;12.872;2023-06-22T03:15:10;18.20;96.90
7684;DHT22;3884;48.616;12.872;2023-06-22T03:17:39;18.10;99.90
7684;DHT22;3884;48.616;12.872;2023-06-22T03:20:08;17.90;1.00
7684;DHT22;3884;48.616;12.872;2023-06-22T03:22:37;18.00;1.00
7684;DHT22;3884;48.616;12.872;2023-06-22T03:25:05;17.90;10.60
7684;DHT22;3884;48.616;12.872;2023-06-22T03:27:39;18.00;3.00
7684;DHT22;3884;48.616;12.872;2023-06-22T03:30:10;18.10;1.00
7684;DHT22;3884;48.616;12.872;2023-06-22T03:32:37;18.10;1.00
7684;DHT22;3884;48.616;12.872;2023-06-22T03:35:06;18.20;99.90
7684;DHT22;3884;48.616;12.872;2023-06-22T03:37:35;18.30;27.60
7684;DHT22;3884;48.616;12.872;2023-06-22T03:40:03;18.40;1.00
7684;DHT22;3884;48.616;12.872;2023-06-22T03:42:33;18.40;1.00
7684;DHT22;3884;48.616;12.872;2023-06-22T03:44:59;18.40;1.00
7684;DHT22;3884;48.616;12.872;2023-06-22T03:47:30;18.50;1.00
7684;DHT22;3884;48.616;12.872;2023-06-22T03:49:57;18.60;1.00
7684;DHT22;3884;48.616;12.872;2023-06-22T03:52:24;18.70;99.90
7684;DHT22;3884;48.616;12.872;2023-06-22T03:54:51;18.70;1.00
7684;DHT22;3884;48.616;12.872;2023-06-22T03:57:18;18.70;99.90
7684;DHT22;3884;48.616;12.872;2023-06-22T03:59:45;18.70;99.90
7684;DHT22;3884;48.616;12.872;2023-06-22T04:02:12;18.60;99.90
7684;DHT22;3884;48.616;12.872;2023-06-22T04:04:40;18.60;99.90
7684;DHT22;3884;48.616;12.872;2023-06-22T04:07:07;18.70;99.90
7684;DHT22;3884;48.616;12.872;2023-06-22T04:09:34;18.80;1.00
7684;DHT22;3884;48.616;12.872;2023-06-22T04:12:01;18.90;99.90
7684;DHT22;3884;48.616;12.872;2023-06-22T04:14:28;18.80;99.90
7684;DHT22;3884;48.616;12.872;2023-06-22T04:16:57;18.80;99.90
7684;DHT22;3884;48.616;12.872;2023-06-22T04:19:26;18.90;1.00
7684;DHT22;3884;48.616;12.872;2023-06-22T04:21:56;18.80;1.00
7684;DHT22;3884;48.616;12.872;2023-06-22T04:24:23;18.90;99.90
7684;DHT22;3884;48.616;12.872;2023-06-22T04:26:49;18.80;4.10
7684;DHT22;3884;48.616;12.872;2023-06-22T04:29:21;18.90;1.00
7684;DHT22;3884;48.616;12.872;2023-06-22T04:31:54;19.00;1.00
7684;DHT22;3884;48.616;12.872;2023-06-22T04:34:23;19.10;99.90
7684;DHT22;3884;48.616;12.872;2023-06-22T04:36:52;19.30;99.90
7684;DHT22;3884;48.616;12.872;2023-06-22T04:39:20;19.30;1.00
7684;DHT22;3884;48.616;12.872;2023-06-22T04:41:47;19.40;99.90
7684;DHT22;3884;48.616;12.872;2023-06-22T04:44:15;19.50;99.90
7684;DHT22;3884;48.616;12.872;2023-06-22T04:46:51;19.60;99.90
7684;DHT22;3884;48.616;12.872;2023-06-22T04:49:20;19.50;99.90
7684;DHT22;3884;48.616;12.872;2023-06-22T04:51:47;19.60;1.00
7684;DHT22;3884;48.616;12.872;2023-06-22T04:54:16;19.60;99.90
7684;DHT22;3884;48.616;12.872;2023-06-22T04:56:44;19.70;1.00
7684;DHT22;3884;48.616;12.872;2023-06-22T04:59:12;19.80;99.90
7684;DHT22;3884;48.616;12.872;2023-06-22T05:01:39;19.90;1.00
7684;DHT22;3884;48.616;12.872;2023-06-22T05:04:06;19.90;94.00
7684;DHT22;3884;48.616;12.872;2023-06-22T05:06:33;20.00;99.90
7684;DHT22;3884;48.616;12.872;2023-06-22T05:09:00;20.10;99.90
7684;DHT22;3884;48.616;12.872;2023-06-22T05:11:28;20.20;99.90
7684;DHT22;3884;48.616;12.872;2023-06-22T05:13:56;20.20;99.90
7684;DHT22;3884;48.616;12.872;2023-06-22T05:16:25;20.30;1.00
7684;DHT22;3884;48.616;12.872;2023-06-22T05:18:52;20.30;1.00
7684;DHT22;3884;48.616;12.872;2023-06-22T05:21:22;20.30;1.00
7684;DHT22;3884;48.616;12.872;2023-06-22T05:23:49;20.30;1.00
7684;DHT22;3884;48.616;12.872;2023-06-22T05:26:16;20.40;1.00
7684;DHT22;3884;48.616;12.872;2023-06-22T05:28:43;20.40;1.00
7684;DHT22;3884;48.616;12.872;2023-06-22T05:31:13;20.50;1.00
7684;DHT22;3884;48.616;12.872;2023-06-22T05:33:40;20.70;99.90
7684;DHT22;3884;48.616;12.872;2023-06-22T05:36:07;20.70;99.90
7684;DHT22;3884;48.616;12.872;2023-06-22T05:38:35;20.80;1.00
7684;DHT22;3884;48.616;12.872;2023-06-22T05:41:02;21.00;1.00
7684;DHT22;3884;48.616;12.872;2023-06-22T05:43:29;21.10;1.00
7684;DHT22;3884;48.616;12.872;2023-06-22T05:45:56;21.20;99.90
7684;DHT22;3884;48.616;12.872;2023-06-22T05:48:24;21.30;99.90
7684;DHT22;3884;48.616;12.872;2023-06-22T05:50:51;21.40;99.90
7684;DHT22;3884;48.616;12.872;2023-06-22T05:53:17;21.50;99.90
7684;DHT22;3884;48.616;12.872;2023-06-22T05:55:44;21.60;99.90
7684;DHT22;3884;48.616;12.872;2023-06-22T05:58:11;21.60;99.90
7684;DHT22;3884;48.616;12.872;2023-06-22T06:00:39;21.70;1.00
7684;DHT22;3884;48.616;12.872;2023-06-22T06:03:06;21.80;2.00
7684;DHT22;3884;48.616;12.872;2023-06-22T06:05:34;21.90;1.00
7684;DHT22;3884;48.616;12.872;2023-06-22T06:08:03;22.00;11.90
7684;DHT22;3884;48.616;12.872;2023-06-22T06:10:31;22.10;1.00
7684;DHT22;3884;48.616;12.872;2023-06-22T06:12:58;22.10;1.00
7684;DHT22;3884;48.616;12.872;2023-06-22T06:15:27;22.30;1.00
7684;DHT22;3884;48.616;12.872;2023-06-22T06:17:54;22.30;1.00
7684;DHT22;3884;48.616;12.872;2023-06-22T06:20:23;22.40;1.00
7684;DHT22;3884;48.616;12.872;2023-06-22T06:22:51;22.30;1.00
7684;DHT22;3884;48.616;12.872;2023-06-22T06:25:18;22.30;1.00
7684;DHT22;3884;48.616;12.872;2023-06-22T06:27:47;22.40;1.00
7684;DHT22;3884;48.616;12.872;2023-06-22T06:30:15;22.50;1.00
7684;DHT22;3884;48.616;12.872;2023-06-22T06:32:43;22.60;1.00
7684;DHT22;3884;48.616;12.872;2023-06-22T06:35:11;22.70;99.90
7684;DHT22;3884;48.616;12.872;2023-06-22T06:37:40;22.90;99.90
7684;DHT22;3884;48.616;12.872;2023-06-22T06:40:10;22.90;99.90
7684;DHT22;3884;48.616;12.872;2023-06-22T06:42:38;23.00;99.90
7684;DHT22;3884;48.616;12.872;2023-06-22T06:45:07;23.10;99.90
7684;DHT22;3884;48.616;12.872;2023-06-22T06:47:34;23.20;99.90
7684;DHT22;3884;48.616;12.872;2023-06-22T06:50:01;23.20;99.90
7684;DHT22;3884;48.616;12.872;2023-06-22T06:52:28;23.30;63.60
7684;DHT22;3884;48.616;12.872;2023-06-22T06:54:55;23.40;99.90
7684;DHT22;3884;48.616;12.872;2023-06-22T06:57:23;23.40;75.70
7684;DHT22;3884;48.616;12.872;2023-06-22T06:59:54;23.50;59.40
7684;DHT22;3884;48.616;12.872;2023-06-22T07:02:21;23.70;10.10
7684;DHT22;3884;48.616;12.872;2023-06-22T07:04:47;23.90;1.00
7684;DHT22;3884;48.616;12.872;2023-06-22T07:07:15;24.00;1.00
7684;DHT22;3884;48.616;12.872;2023-06-22T07:09:41;24.10;1.00
7684;DHT22;3884;48.616;12.872;2023-06-22T07:12:09;24.20;1.00
7684;DHT22;3884;48.616;12.872;2023-06-22T07:14:37;24.40;1.00
7684;DHT22;3884;48.616;12.872;2023-06-22T07:17:04;24.50;1.00
7684;DHT22;3884;48.616;12.872;2023-06-22T07:19:32;24.60;1.00
7684;DHT22;3884;48.616;12.872;2023-06-22T07:21:59;24.70;1.00
7684;DHT22;3884;48.616;12.872;2023-06-22T07:24:27;24.80;1.00
7684;DHT22;3884;48.616;12.872;2023-06-22T07:26:54;24.90;1.00
7684;DHT22;3884;48.616;12.872;2023-06-22T07:29:25;25.00;1.00
7684;DHT22;3884;48.616;12.872;2023-06-22T07:32:12;25.30;1.00
7684;DHT22;3884;48.616;12.872;2023-06-22T07:34:39;25.50;1.00
7684;DHT22;3884;48.616;12.872;2023-06-22T07:37:06;25.70;1.00
7684;DHT22;3884;48.616;12.872;2023-06-22T07:39:33;25.90;1.00
7684;DHT22;3884;48.616;12.872;2023-06-22T07:42:00;25.90;1.00
7684;DHT22;3884;48.616;12.872;2023-06-22T07:44:27;26.20;1.00
7684;DHT22;3884;48.616;12.872;2023-06-22T07:46:54;26.30;1.00
7684;DHT22;3884;48.616;12.872;2023-06-22T07:49:22;26.40;1.00
7684;DHT22;3884;48.616;12.872;2023-06-22T07:51:49;26.60;1.00
7684;DHT22;3884;48.616;12.872;2023-06-22T07:54:15;26.50;1.00
7684;DHT22;3884;48.616;12.872;2023-06-22T07:56:43;26.70;1.00
7684;DHT22;3884;48.616;12.872;2023-06-22T07:59:09;26.80;1.00
7684;DHT22;3884;48.616;12.872;2023-06-22T08:01:36;26.70;1.00
7684;DHT22;3884;48.616;12.872;2023-06-22T08:04:03;26.60;1.00
7684;DHT22;3884;48.616;12.872;2023-06-22T08:06:32;26.80;1.00
7684;DHT22;3884;48.616;12.872;2023-06-22T08:08:59;27.00;1.00
7684;DHT22;3884;48.616;12.872;2023-06-22T08:11:28;27.10;1.00
7684;DHT22;3884;48.616;12.872;2023-06-22T08:13:55;27.40;1.00
7684;DHT22;3884;48.616;12.872;2023-06-22T08:16:24;27.50;1.00
7684;DHT22;3884;48.616;12.872;2023-06-22T08:18:51;27.60;1.00
7684;DHT22;3884;48.616;12.872;2023-06-22T08:21:17;27.80;1.00
7684;DHT22;3884;48.616;12.872;2023-06-22T08:23:46;27.80;99.90
7684;DHT22;3884;48.616;12.872;2023-06-22T08:26:13;27.70;99.90
7684;DHT22;3884;48.616;12.872;2023-06-22T08:28:40;27.70;99.90
7684;DHT22;3884;48.616;12.872;2023-06-22T08:31:07;27.70;99.90
7684;DHT22;3884;48.616;12.872;2023-06-22T08:33:34;28.00;99.90
7684;DHT22;3884;48.616;12.872;2023-06-22T08:36:01;28.00;99.90
7684;DHT22;3884;48.616;12.872;2023-06-22T08:38:28;28.10;99.90
7684;DHT22;3884;48.616;12.872;2023-06-22T08:40:56;28.30;99.90
7684;DHT22;3884;48.616;12.872;2023-06-22T08:43:23;28.30;99.90
7684;DHT22;3884;48.616;12.872;2023-06-22T08:45:49;28.30;99.90
7684;DHT22;3884;48.616;12.872;2023-06-22T08:48:16;28.40;99.90
7684;DHT22;3884;48.616;12.872;2023-06-22T08:50:43;28.50;99.90
7684;DHT22;3884;48.616;12.872;2023-06-22T08:53:10;28.80;99.90
7684;DHT22;3884;48.616;12.872;2023-06-22T08:55:37;28.90;99.90
7684;DHT22;3884;48.616;12.872;2023-06-22T08:58:06;28.80;99.90
7684;DHT22;3884;48.616;12.872;2023-06-22T09:00:32;28.90;99.90
7684;DHT22;3884;48.616;12.872;2023-06-22T09:03:00;28.70;99.90
7684;DHT22;3884;48.616;12.872;2023-06-22T09:05:27;28.80;99.90
7684;DHT22;3884;48.616;12.872;2023-06-22T09:07:55;29.10;99.90
7684;DHT22;3884;48.616;12.872;2023-06-22T09:10:24;29.20;99.90
7684;DHT22;3884;48.616;12.872;2023-06-22T09:12:50;29.20;99.90
7684;DHT22;3884;48.616;12.872;2023-06-22T09:15:18;29.30;99.90
7684;DHT22;3884;48.616;12.872;2023-06-22T09:17:46;29.50;99.90
7684;DHT22;3884;48.616;12.872;2023-06-22T09:20:13;29.80;99.90
7684;DHT22;3884;48.616;12.872;2023-06-22T09:22:40;30.00;99.90
7684;DHT22;3884;48.616;12.872;2023-06-22T09:25:07;29.80;99.90
7684;DHT22;3884;48.616;12.872;2023-06-22T09:27:34;29.70;99.90
7684;DHT22;3884;48.616;12.872;2023-06-22T09:30:01;30.10;99.90
7684;DHT22;3884;48.616;12.872;2023-06-22T09:32:30;30.00;99.90
7684;DHT22;3884;48.616;12.872;2023-06-22T09:34:57;30.20;99.90
7684;DHT22;3884;48.616;12.872;2023-06-22T09:37:23;30.10;99.90
7684;DHT22;3884;48.616;12.872;2023-06-22T09:39:50;29.90;99.90
7684;DHT22;3884;48.616;12.872;2023-06-22T09:42:17;30.20;99.90
7684;DHT22;3884;48.616;12.872;2023-06-22T09:44:43;30.60;99.90
7684;DHT22;3884;48.616;12.872;2023-06-22T09:47:10;30.60;99.90
7684;DHT22;3884;48.616;12.872;2023-06-22T09:49:38;30.30;99.90
7684;DHT22;3884;48.616;12.872;2023-06-22T09:52:06;30.50;99.90
7684;DHT22;3884;48.616;12.872;2023-06-22T09:54:33;30.70;99.90
7684;DHT22;3884;48.616;12.872;2023-06-22T09:56:59;31.00;99.90
7684;DHT22;3884;48.616;12.872;2023-06-22T09:59:26;31.20;99.90
7684;DHT22;3884;48.616;12.872;2023-06-22T10:01:53;30.90;99.90
7684;DHT22;3884;48.616;12.872;2023-06-22T10:04:20;30.90;99.90
7684;DHT22;3884;48.616;12.872;2023-06-22T10:06:51;31.00;99.90
7684;DHT22;3884;48.616;12.872;2023-06-22T10:09:18;31.10;99.90
7684;DHT22;3884;48.616;12.872;2023-06-22T10:11:45;31.00;99.90
7684;DHT22;3884;48.616;12.872;2023-06-22T10:14:11;31.40;99.90
7684;DHT22;3884;48.616;12.872;2023-06-22T10:16:38;31.60;99.90
7684;DHT22;3884;48.616;12.872;2023-06-22T10:19:06;31.70;99.90
7684;DHT22;3884;48.616;12.872;2023-06-22T10:21:35;31.60;99.90
7684;DHT22;3884;48.616;12.872;2023-06-22T10:24:04;31.60;99.90
7684;DHT22;3884;48.616;12.872;2023-06-22T10:26:32;31.60;99.90
7684;DHT22;3884;48.616;12.872;2023-06-22T10:28:59;31.50;99.90
7684;DHT22;3884;48.616;12.872;2023-06-22T10:31:26;31.30;99.90
7684;DHT22;3884;48.616;12.872;2023-06-22T10:33:53;31.20;99.90
7684;DHT22;3884;48.616;12.872;2023-06-22T10:36:20;31.10;99.90
7684;DHT22;3884;48.616;12.872;2023-06-22T10:38:47;31.00;99.90
7684;DHT22;3884;48.616;12.872;2023-06-22T10:41:15;31.10;99.90
7684;DHT22;3884;48.616;12.872;2023-06-22T10:43:42;31.30;99.90
7684;DHT22;3884;48.616;12.872;2023-06-22T10:46:09;31.50;99.90
7684;DHT22;3884;48.616;12.872;2023-06-22T10:48:36;31.50;99.90
7684;DHT22;3884;48.616;12.872;2023-06-22T10:51:03;31.60;99.90
7684;DHT22;3884;48.616;12.872;2023-06-22T10:53:31;31.70;99.90
7684;DHT22;3884;48.616;12.872;2023-06-22T10:55:58;31.80;99.90
7684;DHT22;3884;48.616;12.872;2023-06-22T10:58:26;31.80;99.90
7684;DHT22;3884;48.616;12.872;2023-06-22T11:00:53;32.20;99.90
7684;DHT22;3884;48.616;12.872;2023-06-22T11:03:20;32.10;99.90
7684;DHT22;3884;48.616;12.872;2023-06-22T11:05:47;32.20;99.90
7684;DHT22;3884;48.616;12.872;2023-06-22T11:08:14;32.30;99.90
7684;DHT22;3884;48.616;12.872;2023-06-22T11:10:41;32.20;99.90
7684;DHT22;3884;48.616;12.872;2023-06-22T11:13:07;32.30;99.90
7684;DHT22;3884;48.616;12.872;2023-06-22T11:15:36;32.50;99.90
7684;DHT22;3884;48.616;12.872;2023-06-22T11:18:03;32.40;99.90
7684;DHT22;3884;48.616;12.872;2023-06-22T11:20:33;32.50;99.20
7684;DHT22;3884;48.616;12.872;2023-06-22T11:23:04;32.50;88.20
7684;DHT22;3884;48.616;12.872;2023-06-22T11:25:31;32.60;94.50
7684;DHT22;3884;48.616;12.872;2023-06-22T11:27:57;32.50;92.10
7684;DHT22;3884;48.616;12.872;2023-06-22T11:30:24;32.50;86.70
7684;DHT22;3884;48.616;12.872;2023-06-22T11:32:52;32.40;90.00
7684;DHT22;3884;48.616;12.872;2023-06-22T11:35:19;32.30;81.60
7684;DHT22;3884;48.616;12.872;2023-06-22T11:37:46;32.10;70.80
7684;DHT22;3884;48.616;12.872;2023-06-22T11:40:13;32.00;77.90
7684;DHT22;3884;48.616;12.872;2023-06-22T11:42:40;32.10;70.10
7684;DHT22;3884;48.616;12.872;2023-06-22T11:45:07;32.10;74.90
7684;DHT22;3884;48.616;12.872;2023-06-22T11:47:34;31.90;52.40
7684;DHT22;3884;48.616;12.872;2023-06-22T11:50:05;32.10;77.40
7684;DHT22;3884;48.616;12.872;2023-06-22T11:52:33;32.30;90.90
7684;DHT22;3884;48.616;12.872;2023-06-22T11:55:01;32.50;71.00
7684;DHT22;3884;48.616;12.872;2023-06-22T11:57:29;32.70;86.40
7684;DHT22;3884;48.616;12.872;2023-06-22T11:59:56;32.70;28.00
7684;DHT22;3884;48.616;12.872;2023-06-22T12:02:23;32.60;54.60
7684;DHT22;3884;48.616;12.872;2023-06-22T12:04:50;32.80;80.30
7684;DHT22;3884;48.616;12.872;2023-06-22T12:07:19;32.90;95.40
7684;DHT22;3884;48.616;12.872;2023-06-22T12:09:46;33.10;93.20
7684;DHT22;3884;48.616;12.872;2023-06-22T12:12:13;33.30;82.50
7684;DHT22;3884;48.616;12.872;2023-06-22T12:14:39;33.40;37.30
7684;DHT22;3884;48.616;12.872;2023-06-22T12:17:06;33.40;62.00
7684;DHT22;3884;48.616;12.872;2023-06-22T12:19:33;33.20;20.30
7684;DHT22;3884;48.616;12.872;2023-06-22T12:22:00;33.30;75.80
7684;DHT22;3884;48.616;12.872;2023-06-22T12:24:28;33.30;77.10
7684;DHT22;3884;48.616;12.872;2023-06-22T12:26:55;33.50;65.10
7684;DHT22;3884;48.616;12.872;2023-06-22T12:29:22;33.70;94.20
7684;DHT22;3884;48.616;12.872;2023-06-22T12:31:49;33.70;57.50
7684;DHT22;3884;48.616;12.872;2023-06-22T12:34:16;33.60;57.40
7684;DHT22;3884;48.616;12.872;2023-06-22T12:36:44;33.60;54.80
7684;DHT22;3884;48.616;12.872;2023-06-22T12:39:12;33.80;46.50
7684;DHT22;3884;48.616;12.872;2023-06-22T12:41:41;33.70;58.10
7684;DHT22;3884;48.616;12.872;2023-06-22T12:44:07;33.40;58.60
7684;DHT22;3884;48.616;12.872;2023-06-22T12:46:34;33.30;64.80
7684;DHT22;3884;48.616;12.872;2023-06-22T12:49:03;33.30;55.70
7684;DHT22;3884;48.616;12.872;2023-06-22T12:51:30;33.40;66.40
7684;DHT22;3884;48.616;12.872;2023-06-22T12:53:57;33.30;2.30
7684;DHT22;3884;48.616;12.872;2023-06-22T12:56:24;33.50;19.30
7684;DHT22;3884;48.616;12.872;2023-06-22T12:58:52;33.30;24.60
7684;DHT22;3884;48.616;12.872;2023-06-22T13:01:19;33.40;33.90
7684;DHT22;3884;48.616;12.872;2023-06-22T13:03:46;33.30;29.20
7684;DHT22;3884;48.616;12.872;2023-06-22T13:06:13;33.10;28.30
7684;DHT22;3884;48.616;12.872;2023-06-22T13:08:40;32.80;17.10
7684;DHT22;3884;48.616;12.872;2023-06-22T13:11:07;32.80;47.50
7684;DHT22;3884;48.616;12.872;2023-06-22T13:13:34;32.70;41.30
7684;DHT22;3884;48.616;12.872;2023-06-22T13:16:02;32.60;27.80
7684;DHT22;3884;48.616;12.872;2023-06-22T13:18:29;32.60;34.60
7684;DHT22;3884;48.616;12.872;2023-06-22T13:20:56;33.00;38.00
7684;DHT22;3884;48.616;12.872;2023-06-22T13:23:23;33.40;24.40
7684;DHT22;3884;48.616;12.872;2023-06-22T13:25:50;33.60;36.10
7684;DHT22;3884;48.616;12.872;2023-06-22T13:28:17;33.40;18.40
7684;DHT22;3884;48.616;12.872;2023-06-22T13:30:47;33.60;10.50
7684;DHT22;3884;48.616;12.872;2023-06-22T13:33:16;33.90;12.90
7684;DHT22;3884;48.616;12.872;2023-06-22T13:35:43;34.10;19.90
7684;DHT22;3884;48.616;12.872;2023-06-22T13:38:10;34.20;1.90
7684;DHT22;3884;48.616;12.872;2023-06-22T13:40:37;34.10;3.80
7684;DHT22;3884;48.616;12.872;2023-06-22T13:43:04;34.10;1.00
7684;DHT22;3884;48.616;12.872;2023-06-22T13:45:31;34.20;46.90
7684;DHT22;3884;48.616;12.872;2023-06-22T13:47:58;34.40;2.00
7684;DHT22;3884;48.616;12.872;2023-06-22T13:50:26;34.60;1.00
7684;DHT22;3884;48.616;12.872;2023-06-22T13:52:54;34.70;8.20
7684;DHT22;3884;48.616;12.872;2023-06-22T13:55:22;34.30;1.00
7684;DHT22;3884;48.616;12.872;2023-06-22T13:57:49;34.70;1.00
7684;DHT22;3884;48.616;12.872;2023-06-22T14:00:17;34.80;1.00
7684;DHT22;3884;48.616;12.872;2023-06-22T14:02:44;34.80;4.60
7684;DHT22;3884;48.616;12.872;2023-06-22T14:05:11;34.60;28.50
7684;DHT22;3884;48.616;12.872;2023-06-22T14:07:39;34.20;95.60
7684;DHT22;3884;48.616;12.872;2023-06-22T14:10:06;34.10;85.60
7684;DHT22;3884;48.616;12.872;2023-06-22T14:12:33;34.40;99.90
7684;DHT22;3884;48.616;12.872;2023-06-22T14:15:00;34.60;99.90
7684;DHT22;3884;48.616;12.872;2023-06-22T14:17:27;34.60;99.90
7684;DHT22;3884;48.616;12.872;2023-06-22T14:19:54;34.90;99.90
7684;DHT22;3884;48.616;12.872;2023-06-22T14:22:21;35.10;99.90
7684;DHT22;3884;48.616;12.872;2023-06-22T14:24:50;34.90;99.90
7684;DHT22;3884;48.616;12.872;2023-06-22T14:27:17;35.00;99.90
7684;DHT22;3884;48.616;12.872;2023-06-22T14:29:44;35.00;99.90
7684;DHT22;3884;48.616;12.872;2023-06-22T14:32:11;35.10;99.90
7684;DHT22;3884;48.616;12.872;2023-06-22T14:34:38;34.70;99.90
7684;DHT22;3884;48.616;12.872;2023-06-22T14:37:06;34.50;99.90
7684;DHT22;3884;48.616;12.872;2023-06-22T14:39:33;34.40;20.40
7684;DHT22;3884;48.616;12.872;2023-06-22T14:42:01;34.60;98.70
7684;DHT22;3884;48.616;12.872;2023-06-22T14:44:29;34.60;40.90
7684;DHT22;3884;48.616;12.872;2023-06-22T14:46:56;34.30;66.10
7684;DHT22;3884;48.616;12.872;2023-06-22T14:49:23;34.30;42.10
7684;DHT22;3884;48.616;12.872;2023-06-22T14:51:50;34.30;44.10
7684;DHT22;3884;48.616;12.872;2023-06-22T14:54:17;34.50;34.10
7684;DHT22;3884;48.616;12.872;2023-06-22T14:56:44;34.50;79.30
7684;DHT22;3884;48.616;12.872;2023-06-22T14:59:12;34.70;99.90
7684;DHT22;3884;48.616;12.872;2023-06-22T15:01:39;34.50;98.00
7684;DHT22;3884;48.616;12.872;2023-06-22T15:04:06;34.10;84.40
7684;DHT22;3884;48.616;12.872;2023-06-22T15:06:32;34.10;99.90
7684;DHT22;3884;48.616;12.872;2023-06-22T15:08:59;33.80;99.90
7684;DHT22;3884;48.616;12.872;2023-06-22T15:11:26;33.60;63.30
7684;DHT22;3884;48.616;12.872;2023-06-22T15:13:53;33.50;68.60
7684;DHT22;3884;48.616;12.872;2023-06-22T15:16:21;33.40;98.80
7684;DHT22;3884;48.616;12.872;2023-06-22T15:18:48;33.40;99.90
7684;DHT22;3884;48.616;12.872;2023-06-22T15:21:15;33.30;99.90
7684;DHT22;3884;48.616;12.872;2023-06-22T15:23:42;33.30;51.60
7684;DHT22;3884;48.616;12.872;2023-06-22T15:26:09;33.30;65.20
7684;DHT22;3884;48.616;12.872;2023-06-22T15:28:36;33.50;34.20
7684;DHT22;3884;48.616;12.872;2023-06-22T15:31:03;33.70;89.00
7684;DHT22;3884;48.616;12.872;2023-06-22T15:33:32;33.90;92.50
7684;DHT22;3884;48.616;12.872;2023-06-22T15:35:59;34.10;63.40
7684;DHT22;3884;48.616;12.872;2023-06-22T15:38:29;34.20;59.70
7684;DHT22;3884;48.616;12.872;2023-06-22T15:40:56;34.30;95.60
7684;DHT22;3884;48.616;12.872;2023-06-22T15:43:23;34.60;67.20
7684;DHT22;3884;48.616;12.872;2023-06-22T15:45:50;34.10;59.00
7684;DHT22;3884;48.616;12.872;2023-06-22T15:48:19;33.80;99.90
7684;DHT22;3884;48.616;12.872;2023-06-22T15:50:47;33.70;89.20
7684;DHT22;3884;48.616;12.872;2023-06-22T15:53:14;33.40;59.30
7684;DHT22;3884;48.616;12.872;2023-06-22T15:55:41;33.60;99.60